• Join FlightAware (Why Join?)
  • Login
  • US Flag 
07:11AM EST


 

Airport Tracker/Info


-or-


 

Live Flight TrackerFlight Track Log ✈ AWI3778 ✈ 22-Jun-2013 ✈ KJAX - KDCA

Flight Track Log - Related Links

Times and Time Zones

All times are in EDT time to prevent confusion due to time zone crossing. See the AWI3778 flight status page for this flight to view local times or setup timezone preferences in your user account.

Time Position Orientation Groundspeed Altitude Reporting Facility
EDT Latitude Longitude Course Direction KTS MPH feet Rate Location/Type
02:40PM 30.4736 -81.6753 19° North 157 181 900  Level Jacksonville Center
02:41PM 30.5192 -81.6361 37° Northeast 234 269 3,700 2,621 Climbing Jacksonville Center
02:41PM 30.5547 -81.6453 347° North 222 255 5,400 2,688 Climbing Jacksonville Center
02:42PM 30.6874 -81.4597 44° Northeast  Level FlightAware Approximate
02:42PM 30.6197 -81.6592 350° North 218 251 8,000  Level Jacksonville Center
02:43PM 30.7542 -81.3833 44° Northeast  Level FlightAware Approximate
02:43PM 30.6864 -81.6389 15° North 256 295 10,400  Level Jacksonville Center
02:44PM 30.8277 -81.3167 33° Northeast  Level FlightAware Approximate
02:44PM 30.7508 -81.6089 22° Northeast 250 288 12,800  Level Jacksonville Center
02:45PM 30.9000 -81.2633 19° North  Level FlightAware Approximate
02:45PM 30.8214 -81.5767 21° North 256 295 14,700  Level Jacksonville Center
02:46PM 30.8942 -81.5442 21° North 263 303 15,800 900 Climbing Jacksonville Center
02:47PM 30.9772 -81.5067 21° North 290 334 16,500 800 Climbing Jacksonville Center
02:48PM 31.0708 -81.4714 18° North 324 373 17,400 1,000 Climbing Jacksonville Center
02:49PM 31.1619 -81.4164 27° Northeast 356 410 18,500 1,050 Climbing Jacksonville Center
02:50PM 31.2556 -81.3689 23° Northeast 356 410 19,500 1,000 Climbing Jacksonville Center
02:51PM 31.3444 -81.3114 29° Northeast 360 414 20,500 1,000 Climbing Jacksonville Center
02:52PM 31.4467 -81.2928 North 360 414 21,500 850 Climbing Jacksonville Center
02:53PM 31.5403 -81.2789 North 376 433 22,200 800 Climbing Jacksonville Center
02:54PM 31.6572 -81.2647 North 376 433 23,100 750 Climbing Jacksonville Center
02:55PM 31.7633 -81.2506 North 387 445 23,700 650 Climbing Jacksonville Center
02:56PM 31.8614 -81.2367 North 387 445 24,400 650 Climbing Jacksonville Center
02:57PM 31.9739 -81.2197 North 387 445 25,000 650 Climbing Jacksonville Center
02:58PM 32.0711 -81.1494 31° Northeast 392 451 25,700 700 Climbing Jacksonville Center
02:59PM 32.1783 -81.0614 35° Northeast 407 468 26,400 600 Climbing Jacksonville Center
03:00PM 32.2733 -80.9858 34° Northeast 419 482 26,900 450 Climbing Jacksonville Center
03:01PM 32.3597 -80.9103 36° Northeast 425 489 27,300 450 Climbing Jacksonville Center
03:02PM 32.4586 -80.8244 36° Northeast 430 495 27,800 500 Climbing Jacksonville Center
03:03PM 32.5594 -80.7408 35° Northeast 435 501 28,300 500 Climbing Jacksonville Center
03:05PM 32.6442 -80.6244 35° Northeast  Level FlightAware Approximate
03:05PM 32.7569 -80.5731 35° Northeast 440 506 29,300  Level Jacksonville Center
03:06PM 32.8578 -80.4889 35° Northeast 440 506 29,800 550 Climbing Jacksonville Center
03:07PM 32.9747 -80.3917 35° Northeast 463 533 30,400 550 Climbing Jacksonville Center
03:08PM 33.0692 -80.3072 37° Northeast 443 510 30,900 300 Climbing Jacksonville Center
03:09PM 33.1694 -80.2225 35° Northeast 443 510 31,000 50 Climbing Jacksonville Center
03:10PM 33.2742 -80.1347 35° Northeast 448 516 31,000 -50 Level Jacksonville Center
03:11PM 33.3744 -80.0472 36° Northeast 448 516 30,900  Descending Jacksonville Center
03:12PM 33.4747 -79.9592 36° Northeast 448 516 31,000 50 Climbing Jacksonville Center
03:13PM 33.5750 -79.8714 36° Northeast 448 516 31,000  Level Jacksonville Center
03:14PM 33.6750 -79.7831 36° Northeast 448 516 31,000  Level Jacksonville Center
03:15PM 33.7772 -79.6944 36° Northeast 448 516 31,000  Level Jacksonville Center
03:16PM 33.8792 -79.6056 36° Northeast 448 516 31,000  Level Jacksonville Center
03:17PM 33.9789 -79.5167 36° Northeast 448 516 31,000  Level Jacksonville Center
03:19PM 34.1153 -79.3994 35° Northeast 433 498 31,000  Level Washington Center
03:20PM 34.2161 -79.3111 36° Northeast 439 505 31,000  Level Washington Center
03:21PM 34.3381 -79.2211 31° Northeast 450 518 31,000  Level Washington Center
03:22PM 34.4525 -79.1583 24° Northeast 450 518 31,000  Level Washington Center
03:23PM 34.5650 -79.0925 26° Northeast 450 518 31,000  Level Washington Center
03:24PM 34.6775 -79.0267 26° Northeast 450 518 31,000  Level Washington Center
03:25PM 34.7900 -78.9606 26° Northeast 450 518 31,000  Level Washington Center
03:26PM 34.9067 -78.8944 25° Northeast 450 518 31,000  Level Washington Center
03:27PM 35.0147 -78.8306 26° Northeast 450 518 31,000  Level Washington Center
03:28PM 35.1250 -78.7664 25° Northeast 443 510 31,000  Level Washington Center
03:29PM 35.2353 -78.7019 26° Northeast 437 503 31,000  Level Washington Center
03:30PM 35.3453 -78.6350 26° Northeast 432 497 31,000  Level Washington Center
03:31PM 35.4428 -78.5750 27° Northeast 432 497 31,000  Level Washington Center
03:32PM 35.5656 -78.5056 25° Northeast 427 491 31,000  Level Washington Center
03:33PM 35.6694 -78.4428 26° Northeast 445 512 31,000  Level Washington Center
03:34PM 35.7794 -78.3800 25° Northeast 445 512 31,000 -303 Level Washington Center
03:35PM 35.8872 -78.3147 26° Northeast 439 505 30,400 -787 Descending Washington Center
03:36PM 35.9931 -78.2492 27° Northeast 427 491 29,400 -1,210 Descending Washington Center
03:37PM 36.0967 -78.1883 25° Northeast 420 483 28,000 -1,210 Descending Washington Center
03:38PM 36.1958 -78.1297 25° Northeast 409 471 27,000 -492 Descending Washington Center
03:39PM 36.2933 -78.0658 28° Northeast 397 457 27,000  Level Washington Center
03:40PM 36.3925 -78.0097 24° Northeast 392 451 27,000  Level Washington Center
03:41PM 36.5003 -77.9408 27° Northeast 386 444 27,000  Level Washington Center
03:42PM 36.5975 -77.8817 26° Northeast 386 444 27,000  Level Washington Center
03:43PM 36.6986 -77.8222 25° Northeast 386 444 27,000  Level Washington Center
03:44PM 36.7978 -77.7603 27° Northeast 386 444 27,000  Level Washington Center
03:45PM 36.8992 -77.6983 26° Northeast 386 444 27,000  Level Washington Center
03:46PM 36.9983 -77.6358 27° Northeast 386 444 27,000  Level Washington Center
03:47PM 37.0889 -77.5783 27° Northeast 393 452 27,000 -102 Level Washington Center
03:48PM 37.1900 -77.5186 25° Northeast 393 452 26,800 -1,059 Descending Washington Center
03:49PM 37.2889 -77.4558 27° Northeast 393 452 24,900 -1,835 Descending Washington Center
03:50PM 37.3922 -77.3903 27° Northeast 382 440 23,100 -1,800 Descending Washington Center
03:51PM 37.4828 -77.3297 28° Northeast 377 434 21,300 -1,736 Descending Washington Center
03:52PM 37.5792 -77.3031 12° North 357 411 19,600 -1,714 Descending Washington Center
03:53PM 37.6733 -77.2842 North 342 394 17,900 -1,563 Descending Washington Center
03:54PM 37.7653 -77.2650 North 337 388 16,500 -934 Descending Washington Center
03:55PM 37.8572 -77.2461 North 337 388 16,000 -248 Descending Washington Center
03:56PM 37.9453 -77.2269 10° North 332 382 16,000  Level Washington Center
03:57PM 38.0372 -77.2078 North 332 382 16,000 -1,119 Level Washington Center
03:58PM 38.1272 -77.1939 North 327 376 13,800 -2,083 Descending Washington Center
03:59PM 38.2086 -77.1719 12° North 332 382 11,800 -1,820 Descending Washington Center
04:00PM 38.2922 -77.1553 North 325 374 10,100 -843 Descending Washington Center
04:01PM 38.3822 -77.1386 North 309 356 10,100 -51 Level Washington Center
04:02PM 38.4636 -77.1244 North 296 341 10,000  Descending Washington Center
04:03PM 38.5347 -77.1072 11° North 275 316 10,100  Climbing Washington Center
04:04PM 38.6017 -77.0925 10° North 255 293 10,000 -65 Descending Washington Center
04:04PM 38.6500 -77.0833 North 239 275 10,000 -261 Level Potomac TRACON
04:05PM 38.7167 -77.0667 11° North 241 277 9,600 -750 Descending Potomac TRACON
04:06PM 38.7833 -77.0833 349° North 250 288 8,500 -1,150 Descending Potomac TRACON
04:07PM 38.8333 -77.1167 333° Northwest 255 293 7,300 -1,300 Descending Potomac TRACON
04:08PM 38.8833 -77.1667 322° Northwest 233 268 5,900 -1,200 Descending Potomac TRACON
04:09PM 38.9167 -77.2333 303° West 229 264 5,000 -470 Descending Potomac TRACON
04:10PM 38.9667 -77.2833 322° Northwest 233 268 5,000  Level Potomac TRACON
04:11PM 39.0167 -77.3167 333° Northwest 219 252 5,000 -250 Level Potomac TRACON
04:12PM 39.0333 -77.2667 67° East 176 203 4,500 -1,000 Descending Potomac TRACON
04:13PM 39.0000 -77.2167 131° Southeast 160 184 3,100 -750 Descending Potomac TRACON
04:14PM 38.9833 -77.1833 123° Southeast 153 176 3,000 -100 Descending Potomac TRACON